Terminal Aerodrome Forecast
Issued by NWS Charleston, SC

Home | Current Version | Previous Version | Text Only | Print | Product List | Glossary On
Versions: 1 2 3 4 5 6 7 8 9 10 11 12 13 14 15 16 17 18
451
FTUS42 KCHS 211537 AAD
TAFCHS
TAF AMD
KCHS 211537Z 2116/2212 24006KT 3SM -SHRA VCTS OVC006CB
     FM211630 20009KT P6SM VCSH SCT006 BKN010
      TEMPO 2121/2201 5SM TSRA BR SCT008 OVC015CB
     FM220100 21009KT P6SM SCT008 OVC015 WS020/24040KT
     FM220800 22008KT P6SM VCSH SCT005 OVC010 WS020/23040KT=

USA.gov is the U.S. government's official web portal to all federal, state and local government web resources and services.